sensor_id;sensor_type;location;lat;lon;timestamp;temperature;humidity
5017;DHT22;2527;50.892;16.706;2024-02-21T00:01:16;10.50;99.90
5017;DHT22;2527;50.892;16.706;2024-02-21T00:03:42;10.40;99.90
5017;DHT22;2527;50.892;16.706;2024-02-21T00:06:07;10.40;99.90
5017;DHT22;2527;50.892;16.706;2024-02-21T00:08:33;10.40;99.90
5017;DHT22;2527;50.892;16.706;2024-02-21T00:10:59;10.30;99.90
5017;DHT22;2527;50.892;16.706;2024-02-21T00:13:24;10.30;99.90
5017;DHT22;2527;50.892;16.706;2024-02-21T00:15:52;10.30;99.90
5017;DHT22;2527;50.892;16.706;2024-02-21T00:18:17;10.30;99.90
5017;DHT22;2527;50.892;16.706;2024-02-21T00:20:43;10.30;99.90
5017;DHT22;2527;50.892;16.706;2024-02-21T00:23:09;10.40;99.90
5017;DHT22;2527;50.892;16.706;2024-02-21T00:25:35;10.30;99.90
5017;DHT22;2527;50.892;16.706;2024-02-21T00:28:01;10.30;99.90
5017;DHT22;2527;50.892;16.706;2024-02-21T00:30:28;10.40;99.90
5017;DHT22;2527;50.892;16.706;2024-02-21T00:32:56;10.30;99.90
5017;DHT22;2527;50.892;16.706;2024-02-21T00:35:21;10.30;99.90
5017;DHT22;2527;50.892;16.706;2024-02-21T00:37:47;10.30;99.90
5017;DHT22;2527;50.892;16.706;2024-02-21T00:40:13;10.30;99.90
5017;DHT22;2527;50.892;16.706;2024-02-21T00:42:45;10.30;99.90
5017;DHT22;2527;50.892;16.706;2024-02-21T00:45:11;10.30;99.90
5017;DHT22;2527;50.892;16.706;2024-02-21T00:47:41;10.30;99.90
5017;DHT22;2527;50.892;16.706;2024-02-21T00:50:08;10.20;99.90
5017;DHT22;2527;50.892;16.706;2024-02-21T00:52:34;10.30;99.90
5017;DHT22;2527;50.892;16.706;2024-02-21T00:55:03;10.20;99.90
5017;DHT22;2527;50.892;16.706;2024-02-21T00:57:35;10.20;99.90
5017;DHT22;2527;50.892;16.706;2024-02-21T01:00:01;10.20;99.90
5017;DHT22;2527;50.892;16.706;2024-02-21T01:02:27;10.20;99.90
5017;DHT22;2527;50.892;16.706;2024-02-21T01:04:54;10.10;99.90
5017;DHT22;2527;50.892;16.706;2024-02-21T01:07:19;10.10;99.90
5017;DHT22;2527;50.892;16.706;2024-02-21T01:09:45;10.00;99.90
5017;DHT22;2527;50.892;16.706;2024-02-21T01:12:19;9.90;99.90
5017;DHT22;2527;50.892;16.706;2024-02-21T01:14:48;9.90;99.90
5017;DHT22;2527;50.892;16.706;2024-02-21T01:17:14;9.90;99.90
5017;DHT22;2527;50.892;16.706;2024-02-21T01:19:40;9.80;99.90
5017;DHT22;2527;50.892;16.706;2024-02-21T01:22:07;9.80;99.90
5017;DHT22;2527;50.892;16.706;2024-02-21T01:24:33;9.80;99.90
5017;DHT22;2527;50.892;16.706;2024-02-21T01:26:58;9.80;99.90
5017;DHT22;2527;50.892;16.706;2024-02-21T01:29:25;9.80;99.90
5017;DHT22;2527;50.892;16.706;2024-02-21T01:31:52;9.70;99.90
5017;DHT22;2527;50.892;16.706;2024-02-21T01:34:22;9.80;99.90
5017;DHT22;2527;50.892;16.706;2024-02-21T01:36:48;9.80;99.90
5017;DHT22;2527;50.892;16.706;2024-02-21T01:39:13;9.80;99.90
5017;DHT22;2527;50.892;16.706;2024-02-21T01:41:40;9.80;99.90
5017;DHT22;2527;50.892;16.706;2024-02-21T01:44:06;9.70;99.90
5017;DHT22;2527;50.892;16.706;2024-02-21T01:46:32;9.70;99.90
5017;DHT22;2527;50.892;16.706;2024-02-21T01:48:57;9.70;99.90
5017;DHT22;2527;50.892;16.706;2024-02-21T01:51:24;9.70;99.90
5017;DHT22;2527;50.892;16.706;2024-02-21T01:53:50;9.80;99.90
5017;DHT22;2527;50.892;16.706;2024-02-21T01:56:16;9.80;99.90
5017;DHT22;2527;50.892;16.706;2024-02-21T01:58:42;9.70;99.90
5017;DHT22;2527;50.892;16.706;2024-02-21T02:01:08;9.70;99.90
5017;DHT22;2527;50.892;16.706;2024-02-21T02:03:36;9.70;99.90
5017;DHT22;2527;50.892;16.706;2024-02-21T02:06:04;9.70;99.90
5017;DHT22;2527;50.892;16.706;2024-02-21T02:08:31;9.70;99.90
5017;DHT22;2527;50.892;16.706;2024-02-21T02:10:57;9.70;99.90
5017;DHT22;2527;50.892;16.706;2024-02-21T02:13:22;9.70;99.90
5017;DHT22;2527;50.892;16.706;2024-02-21T02:15:48;9.70;99.90
5017;DHT22;2527;50.892;16.706;2024-02-21T02:18:15;9.70;99.90
5017;DHT22;2527;50.892;16.706;2024-02-21T02:20:41;9.70;99.90
5017;DHT22;2527;50.892;16.706;2024-02-21T02:25:38;9.70;99.90
5017;DHT22;2527;50.892;16.706;2024-02-21T02:28:04;9.70;99.90
5017;DHT22;2527;50.892;16.706;2024-02-21T02:30:33;9.70;99.90
5017;DHT22;2527;50.892;16.706;2024-02-21T02:33:00;9.80;99.90
5017;DHT22;2527;50.892;16.706;2024-02-21T02:35:25;9.80;99.90
5017;DHT22;2527;50.892;16.706;2024-02-21T02:37:51;9.80;99.90
5017;DHT22;2527;50.892;16.706;2024-02-21T02:40:20;9.80;99.90
5017;DHT22;2527;50.892;16.706;2024-02-21T02:42:45;9.90;99.90
5017;DHT22;2527;50.892;16.706;2024-02-21T02:45:12;9.90;99.90
5017;DHT22;2527;50.892;16.706;2024-02-21T02:47:39;9.90;99.90
5017;DHT22;2527;50.892;16.706;2024-02-21T02:50:05;9.90;99.90
5017;DHT22;2527;50.892;16.706;2024-02-21T02:52:31;9.90;99.90
5017;DHT22;2527;50.892;16.706;2024-02-21T02:54:57;9.90;99.90
5017;DHT22;2527;50.892;16.706;2024-02-21T02:57:23;9.90;99.90
5017;DHT22;2527;50.892;16.706;2024-02-21T02:59:49;9.90;99.90
5017;DHT22;2527;50.892;16.706;2024-02-21T03:02:17;9.90;99.90
5017;DHT22;2527;50.892;16.706;2024-02-21T03:04:43;10.00;99.90
5017;DHT22;2527;50.892;16.706;2024-02-21T03:07:10;9.90;99.90
5017;DHT22;2527;50.892;16.706;2024-02-21T03:09:39;10.00;99.90
5017;DHT22;2527;50.892;16.706;2024-02-21T03:12:05;10.00;99.90
5017;DHT22;2527;50.892;16.706;2024-02-21T03:14:32;10.00;99.90
5017;DHT22;2527;50.892;16.706;2024-02-21T03:16:59;10.00;99.90
5017;DHT22;2527;50.892;16.706;2024-02-21T03:19:25;10.00;99.90
5017;DHT22;2527;50.892;16.706;2024-02-21T03:21:51;10.10;99.90
5017;DHT22;2527;50.892;16.706;2024-02-21T03:24:18;10.10;99.90
5017;DHT22;2527;50.892;16.706;2024-02-21T03:26:44;10.10;99.90
5017;DHT22;2527;50.892;16.706;2024-02-21T03:29:10;10.10;99.90
5017;DHT22;2527;50.892;16.706;2024-02-21T03:31:36;10.10;99.90
5017;DHT22;2527;50.892;16.706;2024-02-21T03:34:02;10.10;99.90
5017;DHT22;2527;50.892;16.706;2024-02-21T03:36:28;10.20;99.90
5017;DHT22;2527;50.892;16.706;2024-02-21T03:38:56;10.20;99.90
5017;DHT22;2527;50.892;16.706;2024-02-21T03:41:22;10.20;99.90
5017;DHT22;2527;50.892;16.706;2024-02-21T03:43:48;10.20;99.90
5017;DHT22;2527;50.892;16.706;2024-02-21T03:46:14;10.20;99.90
5017;DHT22;2527;50.892;16.706;2024-02-21T03:48:39;10.20;99.90
5017;DHT22;2527;50.892;16.706;2024-02-21T03:51:05;10.20;99.90
5017;DHT22;2527;50.892;16.706;2024-02-21T03:53:32;9.30;99.90
5017;DHT22;2527;50.892;16.706;2024-02-21T03:56:02;10.20;99.90
5017;DHT22;2527;50.892;16.706;2024-02-21T03:58:32;10.20;99.90
5017;DHT22;2527;50.892;16.706;2024-02-21T04:01:00;10.20;99.90
5017;DHT22;2527;50.892;16.706;2024-02-21T04:03:31;10.20;99.90
5017;DHT22;2527;50.892;16.706;2024-02-21T04:05:56;10.20;99.90
5017;DHT22;2527;50.892;16.706;2024-02-21T04:08:22;10.20;99.90
5017;DHT22;2527;50.892;16.706;2024-02-21T04:10:48;10.20;99.90
5017;DHT22;2527;50.892;16.706;2024-02-21T04:13:14;10.20;99.90
5017;DHT22;2527;50.892;16.706;2024-02-21T04:15:42;10.20;99.90
5017;DHT22;2527;50.892;16.706;2024-02-21T04:18:08;10.20;99.90
5017;DHT22;2527;50.892;16.706;2024-02-21T04:20:34;10.10;99.90
5017;DHT22;2527;50.892;16.706;2024-02-21T04:22:59;10.10;99.90
5017;DHT22;2527;50.892;16.706;2024-02-21T04:25:25;10.10;99.90
5017;DHT22;2527;50.892;16.706;2024-02-21T04:27:52;10.10;99.90
5017;DHT22;2527;50.892;16.706;2024-02-21T04:30:20;10.10;99.90
5017;DHT22;2527;50.892;16.706;2024-02-21T04:32:47;10.10;99.90
5017;DHT22;2527;50.892;16.706;2024-02-21T04:35:14;10.10;99.90
5017;DHT22;2527;50.892;16.706;2024-02-21T04:37:39;10.00;99.90
5017;DHT22;2527;50.892;16.706;2024-02-21T04:40:05;10.00;99.90
5017;DHT22;2527;50.892;16.706;2024-02-21T04:42:31;10.00;99.90
5017;DHT22;2527;50.892;16.706;2024-02-21T04:44:59;10.00;99.90
5017;DHT22;2527;50.892;16.706;2024-02-21T04:47:30;10.00;99.90
5017;DHT22;2527;50.892;16.706;2024-02-21T04:49:56;10.10;99.90
5017;DHT22;2527;50.892;16.706;2024-02-21T04:52:21;10.00;99.90
5017;DHT22;2527;50.892;16.706;2024-02-21T04:54:47;10.00;99.90
5017;DHT22;2527;50.892;16.706;2024-02-21T04:57:13;10.10;99.90
5017;DHT22;2527;50.892;16.706;2024-02-21T04:59:48;10.10;99.90
5017;DHT22;2527;50.892;16.706;2024-02-21T05:02:15;10.10;99.90
5017;DHT22;2527;50.892;16.706;2024-02-21T05:04:42;9.10;99.90
5017;DHT22;2527;50.892;16.706;2024-02-21T05:07:09;10.10;99.90
5017;DHT22;2527;50.892;16.706;2024-02-21T05:09:37;10.10;99.90
5017;DHT22;2527;50.892;16.706;2024-02-21T05:12:03;10.10;99.90
5017;DHT22;2527;50.892;16.706;2024-02-21T05:14:29;10.10;99.90
5017;DHT22;2527;50.892;16.706;2024-02-21T05:16:54;10.90;99.90
5017;DHT22;2527;50.892;16.706;2024-02-21T05:19:21;10.10;99.90
5017;DHT22;2527;50.892;16.706;2024-02-21T05:21:47;10.10;99.90
5017;DHT22;2527;50.892;16.706;2024-02-21T05:24:12;10.10;99.90
5017;DHT22;2527;50.892;16.706;2024-02-21T05:26:38;10.10;99.90
5017;DHT22;2527;50.892;16.706;2024-02-21T05:29:06;10.10;99.90
5017;DHT22;2527;50.892;16.706;2024-02-21T05:34:16;10.10;99.90
5017;DHT22;2527;50.892;16.706;2024-02-21T05:36:42;10.10;99.90
5017;DHT22;2527;50.892;16.706;2024-02-21T05:39:08;10.10;99.90
5017;DHT22;2527;50.892;16.706;2024-02-21T05:41:34;10.10;99.90
5017;DHT22;2527;50.892;16.706;2024-02-21T05:43:59;10.10;99.90
5017;DHT22;2527;50.892;16.706;2024-02-21T05:46:25;10.10;99.90
5017;DHT22;2527;50.892;16.706;2024-02-21T05:48:51;10.10;99.90
5017;DHT22;2527;50.892;16.706;2024-02-21T05:51:17;10.10;99.90
5017;DHT22;2527;50.892;16.706;2024-02-21T05:53:43;10.10;99.90
5017;DHT22;2527;50.892;16.706;2024-02-21T05:56:10;10.10;99.90
5017;DHT22;2527;50.892;16.706;2024-02-21T05:58:37;10.10;99.90
5017;DHT22;2527;50.892;16.706;2024-02-21T06:01:02;10.10;99.90
5017;DHT22;2527;50.892;16.706;2024-02-21T06:03:29;10.10;99.90
5017;DHT22;2527;50.892;16.706;2024-02-21T06:06:01;10.10;99.90
5017;DHT22;2527;50.892;16.706;2024-02-21T06:08:26;10.10;99.90
5017;DHT22;2527;50.892;16.706;2024-02-21T06:10:53;10.10;99.90
5017;DHT22;2527;50.892;16.706;2024-02-21T06:13:20;10.10;99.90
5017;DHT22;2527;50.892;16.706;2024-02-21T06:15:47;10.10;99.90
5017;DHT22;2527;50.892;16.706;2024-02-21T06:18:13;10.20;99.90
5017;DHT22;2527;50.892;16.706;2024-02-21T06:20:40;10.00;99.90
5017;DHT22;2527;50.892;16.706;2024-02-21T06:23:07;10.10;99.90
5017;DHT22;2527;50.892;16.706;2024-02-21T06:25:33;10.10;99.90
5017;DHT22;2527;50.892;16.706;2024-02-21T06:27:59;10.10;99.90
5017;DHT22;2527;50.892;16.706;2024-02-21T06:30:24;10.20;99.90
5017;DHT22;2527;50.892;16.706;2024-02-21T06:32:52;10.10;99.90
5017;DHT22;2527;50.892;16.706;2024-02-21T06:35:21;10.20;99.90
5017;DHT22;2527;50.892;16.706;2024-02-21T06:37:46;10.20;99.90
5017;DHT22;2527;50.892;16.706;2024-02-21T06:40:16;10.20;99.90
5017;DHT22;2527;50.892;16.706;2024-02-21T06:42:42;10.20;99.90
5017;DHT22;2527;50.892;16.706;2024-02-21T06:45:08;10.20;99.90
5017;DHT22;2527;50.892;16.706;2024-02-21T06:47:33;10.20;99.90
5017;DHT22;2527;50.892;16.706;2024-02-21T06:50:00;10.30;99.90
5017;DHT22;2527;50.892;16.706;2024-02-21T06:52:26;10.30;99.90
5017;DHT22;2527;50.892;16.706;2024-02-21T06:54:52;10.30;99.90
5017;DHT22;2527;50.892;16.706;2024-02-21T06:57:17;10.30;99.90
5017;DHT22;2527;50.892;16.706;2024-02-21T06:59:43;10.30;99.90
5017;DHT22;2527;50.892;16.706;2024-02-21T07:02:09;10.30;99.90
5017;DHT22;2527;50.892;16.706;2024-02-21T07:04:34;10.30;99.90
5017;DHT22;2527;50.892;16.706;2024-02-21T07:07:00;10.00;99.90
5017;DHT22;2527;50.892;16.706;2024-02-21T07:09:26;10.30;99.90
5017;DHT22;2527;50.892;16.706;2024-02-21T07:11:54;10.30;99.90
5017;DHT22;2527;50.892;16.706;2024-02-21T07:14:19;10.40;99.90
5017;DHT22;2527;50.892;16.706;2024-02-21T07:16:45;10.40;99.90
5017;DHT22;2527;50.892;16.706;2024-02-21T07:19:11;10.40;99.90
5017;DHT22;2527;50.892;16.706;2024-02-21T07:21:36;10.40;99.90
5017;DHT22;2527;50.892;16.706;2024-02-21T07:24:08;10.30;99.90
5017;DHT22;2527;50.892;16.706;2024-02-21T07:26:33;10.30;99.90
5017;DHT22;2527;50.892;16.706;2024-02-21T07:28:59;10.30;99.90
5017;DHT22;2527;50.892;16.706;2024-02-21T07:31:25;10.30;99.90
5017;DHT22;2527;50.892;16.706;2024-02-21T07:33:51;11.70;99.90
5017;DHT22;2527;50.892;16.706;2024-02-21T07:36:25;10.30;99.90
5017;DHT22;2527;50.892;16.706;2024-02-21T07:38:51;10.30;99.90
5017;DHT22;2527;50.892;16.706;2024-02-21T07:41:16;10.40;99.90
5017;DHT22;2527;50.892;16.706;2024-02-21T07:43:42;10.40;99.90
5017;DHT22;2527;50.892;16.706;2024-02-21T07:46:07;10.40;99.90
5017;DHT22;2527;50.892;16.706;2024-02-21T07:48:33;10.40;99.90
5017;DHT22;2527;50.892;16.706;2024-02-21T07:50:59;10.40;99.90
5017;DHT22;2527;50.892;16.706;2024-02-21T07:53:25;10.40;99.90
5017;DHT22;2527;50.892;16.706;2024-02-21T07:55:51;10.40;99.90
5017;DHT22;2527;50.892;16.706;2024-02-21T07:58:16;10.40;99.90
5017;DHT22;2527;50.892;16.706;2024-02-21T08:00:42;10.40;99.90
5017;DHT22;2527;50.892;16.706;2024-02-21T08:03:08;10.40;99.90
5017;DHT22;2527;50.892;16.706;2024-02-21T08:05:36;10.40;99.90
5017;DHT22;2527;50.892;16.706;2024-02-21T08:08:03;10.40;99.90
5017;DHT22;2527;50.892;16.706;2024-02-21T08:10:29;10.50;99.90
5017;DHT22;2527;50.892;16.706;2024-02-21T08:12:58;10.40;99.90
5017;DHT22;2527;50.892;16.706;2024-02-21T08:15:25;10.50;99.90
5017;DHT22;2527;50.892;16.706;2024-02-21T08:17:58;10.50;99.90
5017;DHT22;2527;50.892;16.706;2024-02-21T08:20:29;10.50;99.90
5017;DHT22;2527;50.892;16.706;2024-02-21T08:22:55;10.50;99.90
5017;DHT22;2527;50.892;16.706;2024-02-21T08:25:22;10.60;99.90
5017;DHT22;2527;50.892;16.706;2024-02-21T08:27:48;10.60;99.90
5017;DHT22;2527;50.892;16.706;2024-02-21T08:30:22;10.60;99.90
5017;DHT22;2527;50.892;16.706;2024-02-21T08:32:48;10.70;99.90
5017;DHT22;2527;50.892;16.706;2024-02-21T08:35:14;10.70;99.90
5017;DHT22;2527;50.892;16.706;2024-02-21T08:37:40;10.70;99.90
5017;DHT22;2527;50.892;16.706;2024-02-21T08:40:06;10.70;99.90
5017;DHT22;2527;50.892;16.706;2024-02-21T08:42:35;10.80;99.90
5017;DHT22;2527;50.892;16.706;2024-02-21T08:45:01;10.80;99.90
5017;DHT22;2527;50.892;16.706;2024-02-21T08:47:27;10.90;99.90
5017;DHT22;2527;50.892;16.706;2024-02-21T08:49:54;10.90;99.90
5017;DHT22;2527;50.892;16.706;2024-02-21T08:52:19;10.90;99.90
5017;DHT22;2527;50.892;16.706;2024-02-21T08:54:45;9.20;99.90
5017;DHT22;2527;50.892;16.706;2024-02-21T08:57:13;11.00;99.90
5017;DHT22;2527;50.892;16.706;2024-02-21T08:59:39;11.10;99.90
5017;DHT22;2527;50.892;16.706;2024-02-21T09:02:06;11.10;99.90
5017;DHT22;2527;50.892;16.706;2024-02-21T09:04:34;11.10;99.90
5017;DHT22;2527;50.892;16.706;2024-02-21T09:07:00;11.10;99.90
5017;DHT22;2527;50.892;16.706;2024-02-21T09:09:26;11.10;99.90
5017;DHT22;2527;50.892;16.706;2024-02-21T09:11:53;11.10;99.90
5017;DHT22;2527;50.892;16.706;2024-02-21T09:14:19;11.10;99.90
5017;DHT22;2527;50.892;16.706;2024-02-21T09:16:45;11.10;99.90
5017;DHT22;2527;50.892;16.706;2024-02-21T09:19:11;11.10;99.90
5017;DHT22;2527;50.892;16.706;2024-02-21T09:21:42;11.20;99.90
5017;DHT22;2527;50.892;16.706;2024-02-21T09:24:08;11.20;99.90
5017;DHT22;2527;50.892;16.706;2024-02-21T09:26:33;11.20;99.90
5017;DHT22;2527;50.892;16.706;2024-02-21T09:28:59;11.20;99.90
5017;DHT22;2527;50.892;16.706;2024-02-21T09:31:26;11.30;99.90
5017;DHT22;2527;50.892;16.706;2024-02-21T09:33:53;11.20;99.90
5017;DHT22;2527;50.892;16.706;2024-02-21T09:36:21;11.20;99.90
5017;DHT22;2527;50.892;16.706;2024-02-21T09:38:47;11.20;99.90
5017;DHT22;2527;50.892;16.706;2024-02-21T09:41:16;11.20;99.90
5017;DHT22;2527;50.892;16.706;2024-02-21T09:43:45;11.20;99.90
5017;DHT22;2527;50.892;16.706;2024-02-21T09:46:18;11.30;99.90
5017;DHT22;2527;50.892;16.706;2024-02-21T09:51:22;11.40;99.90
5017;DHT22;2527;50.892;16.706;2024-02-21T09:53:48;11.40;99.90
5017;DHT22;2527;50.892;16.706;2024-02-21T09:56:17;11.40;99.90
5017;DHT22;2527;50.892;16.706;2024-02-21T09:58:44;11.30;99.90
5017;DHT22;2527;50.892;16.706;2024-02-21T10:01:09;11.30;99.90
5017;DHT22;2527;50.892;16.706;2024-02-21T10:03:35;11.40;99.90
5017;DHT22;2527;50.892;16.706;2024-02-21T10:06:01;11.50;99.90
5017;DHT22;2527;50.892;16.706;2024-02-21T10:08:28;11.50;99.90
5017;DHT22;2527;50.892;16.706;2024-02-21T10:10:53;11.50;99.90
5017;DHT22;2527;50.892;16.706;2024-02-21T10:16:00;11.60;99.90
5017;DHT22;2527;50.892;16.706;2024-02-21T10:18:25;11.60;99.90
5017;DHT22;2527;50.892;16.706;2024-02-21T10:21:02;11.70;99.90
5017;DHT22;2527;50.892;16.706;2024-02-21T10:23:27;11.70;99.90
5017;DHT22;2527;50.892;16.706;2024-02-21T10:25:54;11.70;99.90
5017;DHT22;2527;50.892;16.706;2024-02-21T10:28:29;11.70;99.90
5017;DHT22;2527;50.892;16.706;2024-02-21T10:30:55;11.80;99.90
5017;DHT22;2527;50.892;16.706;2024-02-21T10:33:21;11.80;99.90
5017;DHT22;2527;50.892;16.706;2024-02-21T10:35:49;11.80;99.90
5017;DHT22;2527;50.892;16.706;2024-02-21T10:38:18;11.80;99.90
5017;DHT22;2527;50.892;16.706;2024-02-21T10:40:44;11.80;99.90
5017;DHT22;2527;50.892;16.706;2024-02-21T10:43:17;11.80;99.90
5017;DHT22;2527;50.892;16.706;2024-02-21T10:45:48;11.80;99.90
5017;DHT22;2527;50.892;16.706;2024-02-21T10:48:16;11.80;99.90
5017;DHT22;2527;50.892;16.706;2024-02-21T10:53:23;11.90;99.90
5017;DHT22;2527;50.892;16.706;2024-02-21T10:55:56;11.90;99.90
5017;DHT22;2527;50.892;16.706;2024-02-21T10:58:24;13.40;99.90
5017;DHT22;2527;50.892;16.706;2024-02-21T11:00:51;12.10;99.90
5017;DHT22;2527;50.892;16.706;2024-02-21T11:03:17;12.10;99.90
5017;DHT22;2527;50.892;16.706;2024-02-21T11:05:43;12.10;99.90
5017;DHT22;2527;50.892;16.706;2024-02-21T11:08:10;12.10;99.90
5017;DHT22;2527;50.892;16.706;2024-02-21T11:10:37;12.10;99.90
5017;DHT22;2527;50.892;16.706;2024-02-21T11:13:09;12.10;99.90
5017;DHT22;2527;50.892;16.706;2024-02-21T11:15:35;12.10;99.90
5017;DHT22;2527;50.892;16.706;2024-02-21T11:18:01;12.10;99.90
5017;DHT22;2527;50.892;16.706;2024-02-21T11:20:34;12.10;99.90
5017;DHT22;2527;50.892;16.706;2024-02-21T11:23:00;12.20;99.90
5017;DHT22;2527;50.892;16.706;2024-02-21T11:25:26;12.20;99.90
5017;DHT22;2527;50.892;16.706;2024-02-21T11:28:05;12.20;99.90
5017;DHT22;2527;50.892;16.706;2024-02-21T11:30:36;12.20;99.90
5017;DHT22;2527;50.892;16.706;2024-02-21T11:33:03;12.20;99.90
5017;DHT22;2527;50.892;16.706;2024-02-21T11:35:33;11.70;99.90
5017;DHT22;2527;50.892;16.706;2024-02-21T11:38:11;12.30;99.90
5017;DHT22;2527;50.892;16.706;2024-02-21T11:40:43;12.30;99.90
5017;DHT22;2527;50.892;16.706;2024-02-21T11:43:09;12.30;99.90
5017;DHT22;2527;50.892;16.706;2024-02-21T11:45:34;12.30;99.90
5017;DHT22;2527;50.892;16.706;2024-02-21T11:48:01;12.40;99.90
5017;DHT22;2527;50.892;16.706;2024-02-21T11:50:29;12.40;99.90
5017;DHT22;2527;50.892;16.706;2024-02-21T11:52:56;12.50;99.90
5017;DHT22;2527;50.892;16.706;2024-02-21T11:55:22;12.50;99.90
5017;DHT22;2527;50.892;16.706;2024-02-21T11:57:48;12.80;99.90
5017;DHT22;2527;50.892;16.706;2024-02-21T12:00:20;12.50;99.90
5017;DHT22;2527;50.892;16.706;2024-02-21T12:02:46;12.50;99.90
5017;DHT22;2527;50.892;16.706;2024-02-21T12:05:14;12.50;99.90
5017;DHT22;2527;50.892;16.706;2024-02-21T12:07:40;12.50;99.90
5017;DHT22;2527;50.892;16.706;2024-02-21T12:10:12;12.50;99.90
5017;DHT22;2527;50.892;16.706;2024-02-21T12:12:39;12.50;99.90
5017;DHT22;2527;50.892;16.706;2024-02-21T12:15:05;12.50;99.90
5017;DHT22;2527;50.892;16.706;2024-02-21T12:17:35;12.50;99.90
5017;DHT22;2527;50.892;16.706;2024-02-21T12:20:01;12.50;99.90
5017;DHT22;2527;50.892;16.706;2024-02-21T12:22:29;12.50;99.90
5017;DHT22;2527;50.892;16.706;2024-02-21T12:25:04;12.50;99.90
5017;DHT22;2527;50.892;16.706;2024-02-21T12:27:33;12.50;99.90
5017;DHT22;2527;50.892;16.706;2024-02-21T12:29:58;12.50;99.90
5017;DHT22;2527;50.892;16.706;2024-02-21T12:32:24;12.50;99.90
5017;DHT22;2527;50.892;16.706;2024-02-21T12:34:50;12.50;99.90
5017;DHT22;2527;50.892;16.706;2024-02-21T12:37:16;12.50;99.90
5017;DHT22;2527;50.892;16.706;2024-02-21T12:39:41;13.50;99.90
5017;DHT22;2527;50.892;16.706;2024-02-21T12:42:07;12.50;99.90
5017;DHT22;2527;50.892;16.706;2024-02-21T12:44:34;12.50;99.90
5017;DHT22;2527;50.892;16.706;2024-02-21T12:47:00;12.50;99.90
5017;DHT22;2527;50.892;16.706;2024-02-21T12:49:25;12.50;99.90
5017;DHT22;2527;50.892;16.706;2024-02-21T12:51:54;12.50;99.90
5017;DHT22;2527;50.892;16.706;2024-02-21T12:54:23;12.50;99.90
5017;DHT22;2527;50.892;16.706;2024-02-21T12:56:49;12.50;99.90
5017;DHT22;2527;50.892;16.706;2024-02-21T12:59:27;12.60;99.90
5017;DHT22;2527;50.892;16.706;2024-02-21T13:01:54;12.60;99.90
5017;DHT22;2527;50.892;16.706;2024-02-21T13:04:21;12.60;99.90
5017;DHT22;2527;50.892;16.706;2024-02-21T13:06:49;12.60;99.90
5017;DHT22;2527;50.892;16.706;2024-02-21T13:09:15;12.60;99.90
5017;DHT22;2527;50.892;16.706;2024-02-21T13:11:41;11.10;99.90
5017;DHT22;2527;50.892;16.706;2024-02-21T13:14:07;12.60;99.90
5017;DHT22;2527;50.892;16.706;2024-02-21T13:16:37;12.60;99.90
5017;DHT22;2527;50.892;16.706;2024-02-21T13:19:05;12.50;99.90
5017;DHT22;2527;50.892;16.706;2024-02-21T13:21:30;12.50;99.90
5017;DHT22;2527;50.892;16.706;2024-02-21T13:23:56;12.50;99.90
5017;DHT22;2527;50.892;16.706;2024-02-21T13:26:22;12.60;99.90
5017;DHT22;2527;50.892;16.706;2024-02-21T13:28:48;12.60;99.90
5017;DHT22;2527;50.892;16.706;2024-02-21T13:31:14;12.60;99.90
5017;DHT22;2527;50.892;16.706;2024-02-21T13:33:41;12.70;99.90
5017;DHT22;2527;50.892;16.706;2024-02-21T13:36:07;12.70;99.90
5017;DHT22;2527;50.892;16.706;2024-02-21T13:38:36;12.70;99.90
5017;DHT22;2527;50.892;16.706;2024-02-21T13:41:05;12.70;99.90
5017;DHT22;2527;50.892;16.706;2024-02-21T13:43:30;12.70;99.90
5017;DHT22;2527;50.892;16.706;2024-02-21T13:45:56;12.70;99.90
5017;DHT22;2527;50.892;16.706;2024-02-21T13:48:23;12.70;99.90
5017;DHT22;2527;50.892;16.706;2024-02-21T13:50:50;12.70;99.90
5017;DHT22;2527;50.892;16.706;2024-02-21T13:53:15;12.80;99.90
5017;DHT22;2527;50.892;16.706;2024-02-21T13:55:45;12.80;99.90
5017;DHT22;2527;50.892;16.706;2024-02-21T13:58:10;12.80;99.90
5017;DHT22;2527;50.892;16.706;2024-02-21T14:00:38;12.90;99.90
5017;DHT22;2527;50.892;16.706;2024-02-21T14:03:03;12.90;99.90
5017;DHT22;2527;50.892;16.706;2024-02-21T14:05:29;12.90;99.90
5017;DHT22;2527;50.892;16.706;2024-02-21T14:07:55;13.00;99.90
5017;DHT22;2527;50.892;16.706;2024-02-21T14:10:22;13.00;99.90
5017;DHT22;2527;50.892;16.706;2024-02-21T14:12:48;13.00;99.90
5017;DHT22;2527;50.892;16.706;2024-02-21T14:15:14;11.80;99.90
5017;DHT22;2527;50.892;16.706;2024-02-21T14:17:42;13.00;99.90
5017;DHT22;2527;50.892;16.706;2024-02-21T14:20:07;13.00;99.90
5017;DHT22;2527;50.892;16.706;2024-02-21T14:22:33;13.00;99.90
5017;DHT22;2527;50.892;16.706;2024-02-21T14:25:03;13.00;99.90
5017;DHT22;2527;50.892;16.706;2024-02-21T14:27:30;12.90;99.90
5017;DHT22;2527;50.892;16.706;2024-02-21T14:29:56;12.80;99.90
5017;DHT22;2527;50.892;16.706;2024-02-21T14:32:22;12.80;99.90
5017;DHT22;2527;50.892;16.706;2024-02-21T14:34:48;12.80;99.90
5017;DHT22;2527;50.892;16.706;2024-02-21T14:37:14;12.80;99.90
5017;DHT22;2527;50.892;16.706;2024-02-21T14:39:41;12.70;99.90
5017;DHT22;2527;50.892;16.706;2024-02-21T14:42:07;12.70;99.90
5017;DHT22;2527;50.892;16.706;2024-02-21T14:44:35;12.60;99.90
5017;DHT22;2527;50.892;16.706;2024-02-21T14:47:01;12.60;99.90
5017;DHT22;2527;50.892;16.706;2024-02-21T14:49:26;12.60;99.90
5017;DHT22;2527;50.892;16.706;2024-02-21T14:51:53;12.60;99.90
5017;DHT22;2527;50.892;16.706;2024-02-21T14:54:19;12.60;99.90
5017;DHT22;2527;50.892;16.706;2024-02-21T14:56:45;12.60;99.90
5017;DHT22;2527;50.892;16.706;2024-02-21T14:59:12;12.70;99.90
5017;DHT22;2527;50.892;16.706;2024-02-21T15:01:38;13.90;99.90
5017;DHT22;2527;50.892;16.706;2024-02-21T15:04:05;12.60;99.90
5017;DHT22;2527;50.892;16.706;2024-02-21T15:06:31;12.60;99.90
5017;DHT22;2527;50.892;16.706;2024-02-21T15:08:57;12.50;99.90
5017;DHT22;2527;50.892;16.706;2024-02-21T15:11:25;12.50;99.90
5017;DHT22;2527;50.892;16.706;2024-02-21T15:13:50;12.50;99.90
5017;DHT22;2527;50.892;16.706;2024-02-21T15:16:17;12.40;99.90
5017;DHT22;2527;50.892;16.706;2024-02-21T15:18:51;12.40;99.90
5017;DHT22;2527;50.892;16.706;2024-02-21T15:21:17;12.40;99.90
5017;DHT22;2527;50.892;16.706;2024-02-21T15:23:46;12.30;99.90
5017;DHT22;2527;50.892;16.706;2024-02-21T15:26:12;12.30;99.90
5017;DHT22;2527;50.892;16.706;2024-02-21T15:28:41;12.30;99.90
5017;DHT22;2527;50.892;16.706;2024-02-21T15:31:08;12.20;99.90
5017;DHT22;2527;50.892;16.706;2024-02-21T15:33:33;12.20;99.90
5017;DHT22;2527;50.892;16.706;2024-02-21T15:35:59;12.20;99.90
5017;DHT22;2527;50.892;16.706;2024-02-21T15:38:25;12.10;99.90
5017;DHT22;2527;50.892;16.706;2024-02-21T15:40:50;12.20;99.90
5017;DHT22;2527;50.892;16.706;2024-02-21T15:43:16;12.20;99.90
5017;DHT22;2527;50.892;16.706;2024-02-21T15:45:42;12.10;99.90
5017;DHT22;2527;50.892;16.706;2024-02-21T15:48:08;12.10;99.90
5017;DHT22;2527;50.892;16.706;2024-02-21T15:50:36;12.20;99.90
5017;DHT22;2527;50.892;16.706;2024-02-21T15:53:02;12.10;99.90
5017;DHT22;2527;50.892;16.706;2024-02-21T15:55:31;12.20;99.90
5017;DHT22;2527;50.892;16.706;2024-02-21T15:57:59;12.20;99.90